sensor_id;sensor_type;location;lat;lon;timestamp;P1;durP1;ratioP1;P2;durP2;ratioP2
73168;SDS011;61379;59.732;30.468;2024-03-08T00:01:43;13.80;;;10.93;;
73168;SDS011;61379;59.732;30.468;2024-03-08T00:04:11;15.18;;;11.40;;
73168;SDS011;61379;59.732;30.468;2024-03-08T00:06:38;13.82;;;11.07;;
73168;SDS011;61379;59.732;30.468;2024-03-08T00:09:06;12.30;;;10.00;;
73168;SDS011;61379;59.732;30.468;2024-03-08T00:11:33;14.15;;;11.40;;
73168;SDS011;61379;59.732;30.468;2024-03-08T00:14:01;9.82;;;8.70;;
73168;SDS011;61379;59.732;30.468;2024-03-08T00:16:32;12.75;;;11.35;;
73168;SDS011;61379;59.732;30.468;2024-03-08T00:18:59;13.13;;;11.75;;
73168;SDS011;61379;59.732;30.468;2024-03-08T00:21:26;13.60;;;10.77;;
73168;SDS011;61379;59.732;30.468;2024-03-08T00:23:53;10.25;;;8.95;;
73168;SDS011;61379;59.732;30.468;2024-03-08T00:26:20;12.90;;;11.65;;
73168;SDS011;61379;59.732;30.468;2024-03-08T00:28:47;11.23;;;10.05;;
73168;SDS011;61379;59.732;30.468;2024-03-08T00:31:15;11.95;;;10.55;;
73168;SDS011;61379;59.732;30.468;2024-03-08T00:33:42;12.98;;;10.73;;
73168;SDS011;61379;59.732;30.468;2024-03-08T00:36:08;13.20;;;11.77;;
73168;SDS011;61379;59.732;30.468;2024-03-08T00:38:35;10.85;;;9.75;;
73168;SDS011;61379;59.732;30.468;2024-03-08T00:41:02;13.07;;;10.45;;
73168;SDS011;61379;59.732;30.468;2024-03-08T00:43:29;13.13;;;10.77;;
73168;SDS011;61379;59.732;30.468;2024-03-08T00:45:55;13.20;;;10.88;;
73168;SDS011;61379;59.732;30.468;2024-03-08T00:48:24;17.42;;;12.02;;
73168;SDS011;61379;59.732;30.468;2024-03-08T00:50:51;10.30;;;9.25;;
73168;SDS011;61379;59.732;30.468;2024-03-08T00:53:18;12.40;;;10.65;;
73168;SDS011;61379;59.732;30.468;2024-03-08T00:55:45;15.18;;;11.25;;
73168;SDS011;61379;59.732;30.468;2024-03-08T00:58:12;14.80;;;11.50;;
73168;SDS011;61379;59.732;30.468;2024-03-08T01:00:39;12.02;;;10.07;;
73168;SDS011;61379;59.732;30.468;2024-03-08T01:03:06;16.20;;;10.95;;
73168;SDS011;61379;59.732;30.468;2024-03-08T01:05:34;16.65;;;11.40;;
73168;SDS011;61379;59.732;30.468;2024-03-08T01:08:01;14.43;;;10.98;;
73168;SDS011;61379;59.732;30.468;2024-03-08T01:10:28;14.95;;;11.68;;
73168;SDS011;61379;59.732;30.468;2024-03-08T01:12:55;13.68;;;10.93;;
73168;SDS011;61379;59.732;30.468;2024-03-08T01:15:24;13.75;;;10.00;;
73168;SDS011;61379;59.732;30.468;2024-03-08T01:17:51;12.50;;;10.70;;
73168;SDS011;61379;59.732;30.468;2024-03-08T01:20:19;20.60;;;12.93;;
73168;SDS011;61379;59.732;30.468;2024-03-08T01:22:47;15.82;;;11.02;;
73168;SDS011;61379;59.732;30.468;2024-03-08T01:25:14;17.23;;;12.27;;
73168;SDS011;61379;59.732;30.468;2024-03-08T01:27:41;16.02;;;10.75;;
73168;SDS011;61379;59.732;30.468;2024-03-08T01:30:08;16.02;;;10.32;;
73168;SDS011;61379;59.732;30.468;2024-03-08T01:32:36;16.67;;;10.75;;
73168;SDS011;61379;59.732;30.468;2024-03-08T01:35:03;15.85;;;10.55;;
73168;SDS011;61379;59.732;30.468;2024-03-08T01:37:31;18.92;;;11.15;;
73168;SDS011;61379;59.732;30.468;2024-03-08T01:39:59;18.02;;;13.05;;
73168;SDS011;61379;59.732;30.468;2024-03-08T01:42:26;11.32;;;10.13;;
73168;SDS011;61379;59.732;30.468;2024-03-08T01:44:53;16.42;;;11.25;;
73168;SDS011;61379;59.732;30.468;2024-03-08T01:47:20;11.77;;;8.77;;
73168;SDS011;61379;59.732;30.468;2024-03-08T01:49:48;13.20;;;9.68;;
73168;SDS011;61379;59.732;30.468;2024-03-08T01:52:16;17.27;;;10.52;;
73168;SDS011;61379;59.732;30.468;2024-03-08T01:54:44;12.80;;;9.70;;
73168;SDS011;61379;59.732;30.468;2024-03-08T01:57:12;12.65;;;10.18;;
73168;SDS011;61379;59.732;30.468;2024-03-08T01:59:40;16.50;;;11.40;;
73168;SDS011;61379;59.732;30.468;2024-03-08T02:02:08;13.80;;;9.27;;
73168;SDS011;61379;59.732;30.468;2024-03-08T02:04:37;14.02;;;10.38;;
73168;SDS011;61379;59.732;30.468;2024-03-08T02:07:04;16.33;;;11.98;;
73168;SDS011;61379;59.732;30.468;2024-03-08T02:09:31;16.58;;;11.25;;
73168;SDS011;61379;59.732;30.468;2024-03-08T02:11:58;12.50;;;10.18;;
73168;SDS011;61379;59.732;30.468;2024-03-08T02:14:26;15.18;;;12.18;;
73168;SDS011;61379;59.732;30.468;2024-03-08T02:16:53;18.10;;;11.70;;
73168;SDS011;61379;59.732;30.468;2024-03-08T02:19:23;12.43;;;9.52;;
73168;SDS011;61379;59.732;30.468;2024-03-08T02:21:51;16.08;;;10.82;;
73168;SDS011;61379;59.732;30.468;2024-03-08T02:24:18;13.32;;;10.27;;
73168;SDS011;61379;59.732;30.468;2024-03-08T02:26:45;11.38;;;10.10;;
73168;SDS011;61379;59.732;30.468;2024-03-08T02:29:11;15.43;;;10.98;;
73168;SDS011;61379;59.732;30.468;2024-03-08T02:31:40;13.68;;;10.55;;
73168;SDS011;61379;59.732;30.468;2024-03-08T02:34:06;12.85;;;10.23;;
73168;SDS011;61379;59.732;30.468;2024-03-08T02:36:35;19.02;;;10.77;;
73168;SDS011;61379;59.732;30.468;2024-03-08T02:39:03;16.00;;;11.50;;
73168;SDS011;61379;59.732;30.468;2024-03-08T02:41:30;15.45;;;10.77;;
73168;SDS011;61379;59.732;30.468;2024-03-08T02:43:57;13.13;;;9.65;;
73168;SDS011;61379;59.732;30.468;2024-03-08T02:46:25;15.68;;;10.85;;
73168;SDS011;61379;59.732;30.468;2024-03-08T02:48:52;15.10;;;12.65;;
73168;SDS011;61379;59.732;30.468;2024-03-08T02:51:18;14.98;;;8.63;;
73168;SDS011;61379;59.732;30.468;2024-03-08T02:53:45;15.10;;;11.77;;
73168;SDS011;61379;59.732;30.468;2024-03-08T02:56:15;16.00;;;11.13;;
73168;SDS011;61379;59.732;30.468;2024-03-08T02:58:42;14.25;;;11.75;;
73168;SDS011;61379;59.732;30.468;2024-03-08T03:01:13;14.20;;;10.93;;
73168;SDS011;61379;59.732;30.468;2024-03-08T03:03:41;13.13;;;9.15;;
73168;SDS011;61379;59.732;30.468;2024-03-08T03:06:08;10.82;;;8.93;;
73168;SDS011;61379;59.732;30.468;2024-03-08T03:08:35;16.70;;;12.23;;
73168;SDS011;61379;59.732;30.468;2024-03-08T03:11:02;13.07;;;10.90;;
73168;SDS011;61379;59.732;30.468;2024-03-08T03:13:30;12.45;;;10.95;;
73168;SDS011;61379;59.732;30.468;2024-03-08T03:15:57;15.50;;;11.38;;
73168;SDS011;61379;59.732;30.468;2024-03-08T03:18:24;15.45;;;9.43;;
73168;SDS011;61379;59.732;30.468;2024-03-08T03:20:52;20.23;;;12.75;;
73168;SDS011;61379;59.732;30.468;2024-03-08T03:23:19;13.60;;;11.60;;
73168;SDS011;61379;59.732;30.468;2024-03-08T03:25:46;12.95;;;11.57;;
73168;SDS011;61379;59.732;30.468;2024-03-08T03:28:13;14.65;;;12.57;;
73168;SDS011;61379;59.732;30.468;2024-03-08T03:33:13;14.30;;;9.60;;
73168;SDS011;61379;59.732;30.468;2024-03-08T03:35:40;13.30;;;9.13;;
73168;SDS011;61379;59.732;30.468;2024-03-08T03:38:08;14.50;;;11.18;;
73168;SDS011;61379;59.732;30.468;2024-03-08T03:40:35;13.30;;;8.98;;
73168;SDS011;61379;59.732;30.468;2024-03-08T03:43:02;14.73;;;12.25;;
73168;SDS011;61379;59.732;30.468;2024-03-08T03:45:29;17.15;;;11.73;;
73168;SDS011;61379;59.732;30.468;2024-03-08T03:48:01;14.48;;;10.90;;
73168;SDS011;61379;59.732;30.468;2024-03-08T03:50:29;12.73;;;11.25;;
73168;SDS011;61379;59.732;30.468;2024-03-08T03:53:00;13.02;;;10.88;;
73168;SDS011;61379;59.732;30.468;2024-03-08T03:55:27;13.55;;;12.05;;
73168;SDS011;61379;59.732;30.468;2024-03-08T03:57:54;14.70;;;12.63;;
73168;SDS011;61379;59.732;30.468;2024-03-08T04:00:20;13.65;;;10.85;;
73168;SDS011;61379;59.732;30.468;2024-03-08T04:02:47;16.70;;;13.05;;
73168;SDS011;61379;59.732;30.468;2024-03-08T04:05:14;12.38;;;11.07;;
73168;SDS011;61379;59.732;30.468;2024-03-08T04:07:42;14.30;;;11.23;;
73168;SDS011;61379;59.732;30.468;2024-03-08T04:10:10;11.70;;;10.43;;
73168;SDS011;61379;59.732;30.468;2024-03-08T04:12:37;14.90;;;11.70;;
73168;SDS011;61379;59.732;30.468;2024-03-08T04:15:04;13.57;;;11.02;;
73168;SDS011;61379;59.732;30.468;2024-03-08T04:17:32;15.15;;;12.52;;
73168;SDS011;61379;59.732;30.468;2024-03-08T04:20:01;14.75;;;11.02;;
73168;SDS011;61379;59.732;30.468;2024-03-08T04:22:30;16.25;;;10.45;;
73168;SDS011;61379;59.732;30.468;2024-03-08T04:24:59;14.15;;;10.75;;
73168;SDS011;61379;59.732;30.468;2024-03-08T04:27:28;12.32;;;10.25;;
73168;SDS011;61379;59.732;30.468;2024-03-08T04:29:55;11.23;;;10.10;;
73168;SDS011;61379;59.732;30.468;2024-03-08T04:32:22;13.60;;;11.02;;
73168;SDS011;61379;59.732;30.468;2024-03-08T04:34:49;14.38;;;12.00;;
73168;SDS011;61379;59.732;30.468;2024-03-08T04:37:15;13.30;;;11.90;;
73168;SDS011;61379;59.732;30.468;2024-03-08T04:39:43;15.00;;;12.27;;
73168;SDS011;61379;59.732;30.468;2024-03-08T04:42:11;14.15;;;11.40;;
73168;SDS011;61379;59.732;30.468;2024-03-08T04:44:39;12.02;;;10.85;;
73168;SDS011;61379;59.732;30.468;2024-03-08T04:47:06;13.30;;;11.50;;
73168;SDS011;61379;59.732;30.468;2024-03-08T04:49:33;14.13;;;12.63;;
73168;SDS011;61379;59.732;30.468;2024-03-08T04:52:01;12.35;;;10.90;;
73168;SDS011;61379;59.732;30.468;2024-03-08T04:54:28;13.00;;;11.80;;
73168;SDS011;61379;59.732;30.468;2024-03-08T04:56:55;12.02;;;10.93;;
73168;SDS011;61379;59.732;30.468;2024-03-08T04:59:23;11.10;;;10.30;;
73168;SDS011;61379;59.732;30.468;2024-03-08T05:01:50;11.23;;;10.15;;
73168;SDS011;61379;59.732;30.468;2024-03-08T05:04:17;12.10;;;11.05;;
73168;SDS011;61379;59.732;30.468;2024-03-08T05:06:44;11.38;;;10.38;;
73168;SDS011;61379;59.732;30.468;2024-03-08T05:09:10;11.65;;;10.40;;
73168;SDS011;61379;59.732;30.468;2024-03-08T05:11:42;9.52;;;8.73;;
73168;SDS011;61379;59.732;30.468;2024-03-08T05:14:09;10.15;;;9.35;;
73168;SDS011;61379;59.732;30.468;2024-03-08T05:16:38;9.77;;;9.05;;
73168;SDS011;61379;59.732;30.468;2024-03-08T05:19:05;10.40;;;9.52;;
73168;SDS011;61379;59.732;30.468;2024-03-08T05:21:32;9.90;;;9.05;;
73168;SDS011;61379;59.732;30.468;2024-03-08T05:23:59;10.40;;;9.18;;
73168;SDS011;61379;59.732;30.468;2024-03-08T05:26:26;9.95;;;9.18;;
73168;SDS011;61379;59.732;30.468;2024-03-08T05:28:52;10.20;;;9.40;;
73168;SDS011;61379;59.732;30.468;2024-03-08T05:31:19;10.32;;;9.45;;
73168;SDS011;61379;59.732;30.468;2024-03-08T05:33:50;9.95;;;9.23;;
73168;SDS011;61379;59.732;30.468;2024-03-08T05:36:16;8.90;;;8.00;;
73168;SDS011;61379;59.732;30.468;2024-03-08T05:38:43;9.60;;;8.70;;
73168;SDS011;61379;59.732;30.468;2024-03-08T05:41:10;9.73;;;8.93;;
73168;SDS011;61379;59.732;30.468;2024-03-08T05:43:37;9.77;;;8.98;;
73168;SDS011;61379;59.732;30.468;2024-03-08T05:46:05;9.85;;;9.02;;
73168;SDS011;61379;59.732;30.468;2024-03-08T05:48:31;9.23;;;8.52;;
73168;SDS011;61379;59.732;30.468;2024-03-08T05:51:00;10.05;;;9.18;;
73168;SDS011;61379;59.732;30.468;2024-03-08T05:53:28;9.75;;;8.85;;
73168;SDS011;61379;59.732;30.468;2024-03-08T05:55:57;10.30;;;9.50;;
73168;SDS011;61379;59.732;30.468;2024-03-08T05:58:23;10.82;;;10.02;;
73168;SDS011;61379;59.732;30.468;2024-03-08T06:00:50;9.70;;;8.90;;
73168;SDS011;61379;59.732;30.468;2024-03-08T06:03:17;9.32;;;8.52;;
73168;SDS011;61379;59.732;30.468;2024-03-08T06:05:47;10.20;;;9.40;;
73168;SDS011;61379;59.732;30.468;2024-03-08T06:08:15;8.30;;;7.70;;
73168;SDS011;61379;59.732;30.468;2024-03-08T06:10:44;9.20;;;8.50;;
73168;SDS011;61379;59.732;30.468;2024-03-08T06:13:11;9.50;;;8.60;;
73168;SDS011;61379;59.732;30.468;2024-03-08T06:15:38;9.15;;;8.45;;
73168;SDS011;61379;59.732;30.468;2024-03-08T06:18:05;9.23;;;8.52;;
73168;SDS011;61379;59.732;30.468;2024-03-08T06:20:36;8.90;;;8.18;;
73168;SDS011;61379;59.732;30.468;2024-03-08T06:23:02;10.73;;;8.77;;
73168;SDS011;61379;59.732;30.468;2024-03-08T06:25:31;10.02;;;9.23;;
73168;SDS011;61379;59.732;30.468;2024-03-08T06:27:58;9.55;;;8.75;;
73168;SDS011;61379;59.732;30.468;2024-03-08T06:30:24;8.18;;;7.47;;
73168;SDS011;61379;59.732;30.468;2024-03-08T06:32:51;8.52;;;7.85;;
73168;SDS011;61379;59.732;30.468;2024-03-08T06:35:18;8.80;;;7.95;;
73168;SDS011;61379;59.732;30.468;2024-03-08T06:37:45;9.15;;;8.55;;
73168;SDS011;61379;59.732;30.468;2024-03-08T06:40:12;7.28;;;6.70;;
73168;SDS011;61379;59.732;30.468;2024-03-08T06:42:41;8.88;;;8.27;;
73168;SDS011;61379;59.732;30.468;2024-03-08T06:45:08;9.35;;;8.55;;
73168;SDS011;61379;59.732;30.468;2024-03-08T06:47:35;9.20;;;8.38;;
73168;SDS011;61379;59.732;30.468;2024-03-08T06:50:02;9.32;;;8.55;;
73168;SDS011;61379;59.732;30.468;2024-03-08T06:52:30;9.00;;;8.30;;
73168;SDS011;61379;59.732;30.468;2024-03-08T06:54:56;9.82;;;8.82;;
73168;SDS011;61379;59.732;30.468;2024-03-08T06:57:23;8.98;;;7.93;;
73168;SDS011;61379;59.732;30.468;2024-03-08T06:59:51;9.50;;;8.70;;
73168;SDS011;61379;59.732;30.468;2024-03-08T07:02:19;10.18;;;9.38;;
73168;SDS011;61379;59.732;30.468;2024-03-08T07:07:16;9.23;;;8.52;;
73168;SDS011;61379;59.732;30.468;2024-03-08T07:09:45;9.57;;;8.77;;
73168;SDS011;61379;59.732;30.468;2024-03-08T07:12:11;9.38;;;8.60;;
73168;SDS011;61379;59.732;30.468;2024-03-08T07:14:38;9.45;;;8.60;;
73168;SDS011;61379;59.732;30.468;2024-03-08T07:17:07;7.35;;;6.63;;
73168;SDS011;61379;59.732;30.468;2024-03-08T07:19:34;9.02;;;8.18;;
73168;SDS011;61379;59.732;30.468;2024-03-08T07:22:03;7.63;;;6.90;;
73168;SDS011;61379;59.732;30.468;2024-03-08T07:24:30;9.70;;;9.00;;
73168;SDS011;61379;59.732;30.468;2024-03-08T07:27:09;10.00;;;9.15;;
73168;SDS011;61379;59.732;30.468;2024-03-08T07:29:37;10.75;;;7.97;;
73168;SDS011;61379;59.732;30.468;2024-03-08T07:32:04;9.27;;;8.48;;
73168;SDS011;61379;59.732;30.468;2024-03-08T07:34:44;10.20;;;9.32;;
73168;SDS011;61379;59.732;30.468;2024-03-08T07:37:12;9.90;;;8.98;;
73168;SDS011;61379;59.732;30.468;2024-03-08T07:39:39;9.70;;;8.95;;
73168;SDS011;61379;59.732;30.468;2024-03-08T07:42:06;10.00;;;9.00;;
73168;SDS011;61379;59.732;30.468;2024-03-08T07:44:33;8.68;;;7.95;;
73168;SDS011;61379;59.732;30.468;2024-03-08T07:47:00;9.48;;;8.68;;
73168;SDS011;61379;59.732;30.468;2024-03-08T07:49:26;10.32;;;9.50;;
73168;SDS011;61379;59.732;30.468;2024-03-08T07:51:55;9.77;;;8.95;;
73168;SDS011;61379;59.732;30.468;2024-03-08T07:54:21;9.88;;;9.07;;
73168;SDS011;61379;59.732;30.468;2024-03-08T07:56:48;10.15;;;9.25;;
73168;SDS011;61379;59.732;30.468;2024-03-08T07:59:16;9.05;;;8.15;;
73168;SDS011;61379;59.732;30.468;2024-03-08T08:01:43;9.02;;;8.35;;
73168;SDS011;61379;59.732;30.468;2024-03-08T08:04:10;9.40;;;8.60;;
73168;SDS011;61379;59.732;30.468;2024-03-08T08:06:38;9.55;;;8.75;;
73168;SDS011;61379;59.732;30.468;2024-03-08T08:09:07;9.63;;;8.82;;
73168;SDS011;61379;59.732;30.468;2024-03-08T08:11:39;10.73;;;9.82;;
73168;SDS011;61379;59.732;30.468;2024-03-08T08:14:08;10.20;;;9.30;;
73168;SDS011;61379;59.732;30.468;2024-03-08T08:16:36;8.65;;;7.93;;
73168;SDS011;61379;59.732;30.468;2024-03-08T08:19:03;10.32;;;9.20;;
73168;SDS011;61379;59.732;30.468;2024-03-08T08:21:33;10.57;;;9.63;;
73168;SDS011;61379;59.732;30.468;2024-03-08T08:24:00;9.23;;;8.40;;
73168;SDS011;61379;59.732;30.468;2024-03-08T08:26:30;9.52;;;8.70;;
73168;SDS011;61379;59.732;30.468;2024-03-08T08:28:58;9.45;;;8.55;;
73168;SDS011;61379;59.732;30.468;2024-03-08T08:31:25;9.90;;;9.13;;
73168;SDS011;61379;59.732;30.468;2024-03-08T08:33:52;10.43;;;9.48;;
73168;SDS011;61379;59.732;30.468;2024-03-08T08:36:23;10.63;;;9.63;;
73168;SDS011;61379;59.732;30.468;2024-03-08T08:38:50;10.40;;;9.45;;
73168;SDS011;61379;59.732;30.468;2024-03-08T08:41:19;11.95;;;9.00;;
73168;SDS011;61379;59.732;30.468;2024-03-08T08:43:48;11.25;;;9.07;;
73168;SDS011;61379;59.732;30.468;2024-03-08T08:46:16;9.98;;;9.18;;
73168;SDS011;61379;59.732;30.468;2024-03-08T08:48:43;10.15;;;9.18;;
73168;SDS011;61379;59.732;30.468;2024-03-08T08:51:12;10.65;;;9.65;;
73168;SDS011;61379;59.732;30.468;2024-03-08T08:53:39;11.38;;;9.75;;
73168;SDS011;61379;59.732;30.468;2024-03-08T08:56:08;10.23;;;9.27;;
73168;SDS011;61379;59.732;30.468;2024-03-08T08:58:38;10.50;;;9.80;;
73168;SDS011;61379;59.732;30.468;2024-03-08T09:01:07;11.65;;;10.43;;
73168;SDS011;61379;59.732;30.468;2024-03-08T09:03:35;11.82;;;10.63;;
73168;SDS011;61379;59.732;30.468;2024-03-08T09:06:02;10.43;;;9.43;;
73168;SDS011;61379;59.732;30.468;2024-03-08T09:08:29;12.90;;;10.13;;
73168;SDS011;61379;59.732;30.468;2024-03-08T09:10:56;11.85;;;9.98;;
73168;SDS011;61379;59.732;30.468;2024-03-08T09:13:25;11.32;;;9.30;;
73168;SDS011;61379;59.732;30.468;2024-03-08T09:15:51;10.25;;;9.45;;
73168;SDS011;61379;59.732;30.468;2024-03-08T09:18:20;9.13;;;8.27;;
73168;SDS011;61379;59.732;30.468;2024-03-08T09:20:47;10.10;;;9.23;;
73168;SDS011;61379;59.732;30.468;2024-03-08T09:23:14;11.05;;;9.73;;
73168;SDS011;61379;59.732;30.468;2024-03-08T09:25:42;10.82;;;9.82;;
73168;SDS011;61379;59.732;30.468;2024-03-08T09:28:09;12.35;;;10.27;;
73168;SDS011;61379;59.732;30.468;2024-03-08T09:30:37;14.68;;;10.40;;
73168;SDS011;61379;59.732;30.468;2024-03-08T09:33:04;20.75;;;12.00;;
73168;SDS011;61379;59.732;30.468;2024-03-08T09:35:32;11.40;;;10.32;;
73168;SDS011;61379;59.732;30.468;2024-03-08T09:37:59;11.15;;;10.25;;
73168;SDS011;61379;59.732;30.468;2024-03-08T09:40:26;13.80;;;10.23;;
73168;SDS011;61379;59.732;30.468;2024-03-08T09:42:53;12.18;;;10.73;;
73168;SDS011;61379;59.732;30.468;2024-03-08T09:45:20;10.75;;;9.75;;
73168;SDS011;61379;59.732;30.468;2024-03-08T09:47:50;19.92;;;10.27;;
73168;SDS011;61379;59.732;30.468;2024-03-08T09:50:18;11.80;;;9.15;;
73168;SDS011;61379;59.732;30.468;2024-03-08T09:52:48;10.38;;;9.38;;
73168;SDS011;61379;59.732;30.468;2024-03-08T09:55:16;10.00;;;9.00;;
73168;SDS011;61379;59.732;30.468;2024-03-08T09:57:47;10.18;;;9.38;;
73168;SDS011;61379;59.732;30.468;2024-03-08T10:00:34;10.80;;;9.80;;
73168;SDS011;61379;59.732;30.468;2024-03-08T10:03:02;10.68;;;9.57;;
73168;SDS011;61379;59.732;30.468;2024-03-08T10:05:30;10.75;;;9.75;;
73168;SDS011;61379;59.732;30.468;2024-03-08T10:07:59;9.77;;;8.85;;
73168;SDS011;61379;59.732;30.468;2024-03-08T10:10:26;10.40;;;8.77;;
73168;SDS011;61379;59.732;30.468;2024-03-08T10:12:53;14.20;;;8.88;;
73168;SDS011;61379;59.732;30.468;2024-03-08T10:15:20;8.50;;;7.20;;
73168;SDS011;61379;59.732;30.468;2024-03-08T10:17:47;9.25;;;7.72;;
73168;SDS011;61379;59.732;30.468;2024-03-08T10:20:17;9.20;;;8.40;;
73168;SDS011;61379;59.732;30.468;2024-03-08T10:22:46;10.07;;;6.93;;
73168;SDS011;61379;59.732;30.468;2024-03-08T10:25:15;9.40;;;8.48;;
73168;SDS011;61379;59.732;30.468;2024-03-08T10:27:43;16.13;;;10.07;;
73168;SDS011;61379;59.732;30.468;2024-03-08T10:30:14;9.07;;;7.40;;
73168;SDS011;61379;59.732;30.468;2024-03-08T10:32:45;10.40;;;9.13;;
73168;SDS011;61379;59.732;30.468;2024-03-08T10:35:12;14.15;;;8.00;;
73168;SDS011;61379;59.732;30.468;2024-03-08T10:37:42;10.55;;;7.88;;
73168;SDS011;61379;59.732;30.468;2024-03-08T10:40:13;8.25;;;7.60;;
73168;SDS011;61379;59.732;30.468;2024-03-08T10:42:51;9.55;;;7.85;;
73168;SDS011;61379;59.732;30.468;2024-03-08T10:45:19;11.55;;;8.50;;
73168;SDS011;61379;59.732;30.468;2024-03-08T10:47:54;8.90;;;7.70;;
73168;SDS011;61379;59.732;30.468;2024-03-08T10:50:26;12.02;;;9.35;;
73168;SDS011;61379;59.732;30.468;2024-03-08T10:52:54;11.25;;;7.13;;
73168;SDS011;61379;59.732;30.468;2024-03-08T10:55:22;13.27;;;8.60;;
73168;SDS011;61379;59.732;30.468;2024-03-08T10:57:53;8.55;;;7.72;;
73168;SDS011;61379;59.732;30.468;2024-03-08T11:00:20;10.25;;;7.63;;
73168;SDS011;61379;59.732;30.468;2024-03-08T11:02:52;9.70;;;8.82;;
73168;SDS011;61379;59.732;30.468;2024-03-08T11:05:31;9.25;;;8.27;;
73168;SDS011;61379;59.732;30.468;2024-03-08T11:08:00;9.10;;;8.25;;
73168;SDS011;61379;59.732;30.468;2024-03-08T11:10:27;9.32;;;8.20;;
73168;SDS011;61379;59.732;30.468;2024-03-08T11:12:56;8.90;;;8.10;;
73168;SDS011;61379;59.732;30.468;2024-03-08T11:15:24;8.55;;;7.75;;
73168;SDS011;61379;59.732;30.468;2024-03-08T11:17:52;16.20;;;8.77;;
73168;SDS011;61379;59.732;30.468;2024-03-08T11:20:23;9.68;;;8.77;;
73168;SDS011;61379;59.732;30.468;2024-03-08T11:22:51;11.52;;;9.40;;
73168;SDS011;61379;59.732;30.468;2024-03-08T11:25:31;8.85;;;8.05;;
73168;SDS011;61379;59.732;30.468;2024-03-08T11:28:16;10.23;;;8.90;;
73168;SDS011;61379;59.732;30.468;2024-03-08T11:30:44;14.75;;;9.40;;
73168;SDS011;61379;59.732;30.468;2024-03-08T11:33:13;8.40;;;7.63;;
73168;SDS011;61379;59.732;30.468;2024-03-08T11:35:41;10.13;;;8.88;;
73168;SDS011;61379;59.732;30.468;2024-03-08T11:38:11;10.02;;;8.82;;
73168;SDS011;61379;59.732;30.468;2024-03-08T11:40:39;11.23;;;9.10;;
73168;SDS011;61379;59.732;30.468;2024-03-08T11:43:07;9.93;;;9.10;;
73168;SDS011;61379;59.732;30.468;2024-03-08T11:45:35;14.35;;;9.40;;
73168;SDS011;61379;59.732;30.468;2024-03-08T11:48:03;10.52;;;9.55;;
73168;SDS011;61379;59.732;30.468;2024-03-08T11:50:31;9.88;;;9.18;;
73168;SDS011;61379;59.732;30.468;2024-03-08T11:53:02;9.18;;;8.27;;
73168;SDS011;61379;59.732;30.468;2024-03-08T11:55:29;9.70;;;8.70;;
73168;SDS011;61379;59.732;30.468;2024-03-08T11:58:00;16.23;;;8.38;;
73168;SDS011;61379;59.732;30.468;2024-03-08T12:00:27;14.13;;;10.05;;
73168;SDS011;61379;59.732;30.468;2024-03-08T12:03:08;12.80;;;9.85;;
73168;SDS011;61379;59.732;30.468;2024-03-08T12:05:36;10.25;;;9.35;;
73168;SDS011;61379;59.732;30.468;2024-03-08T12:08:03;11.40;;;8.75;;
73168;SDS011;61379;59.732;30.468;2024-03-08T12:10:32;9.35;;;8.63;;
73168;SDS011;61379;59.732;30.468;2024-03-08T12:13:00;8.20;;;7.47;;
73168;SDS011;61379;59.732;30.468;2024-03-08T12:15:29;9.30;;;8.20;;
73168;SDS011;61379;59.732;30.468;2024-03-08T12:17:58;11.70;;;10.50;;
73168;SDS011;61379;59.732;30.468;2024-03-08T12:20:27;11.43;;;9.93;;
73168;SDS011;61379;59.732;30.468;2024-03-08T12:22:56;11.23;;;9.05;;
73168;SDS011;61379;59.732;30.468;2024-03-08T12:25:25;11.77;;;10.65;;
73168;SDS011;61379;59.732;30.468;2024-03-08T12:27:52;11.93;;;9.38;;
73168;SDS011;61379;59.732;30.468;2024-03-08T12:30:21;10.73;;;7.53;;
73168;SDS011;61379;59.732;30.468;2024-03-08T12:32:51;10.02;;;9.10;;
73168;SDS011;61379;59.732;30.468;2024-03-08T12:35:19;10.07;;;9.10;;
73168;SDS011;61379;59.732;30.468;2024-03-08T12:37:50;9.75;;;8.65;;
73168;SDS011;61379;59.732;30.468;2024-03-08T12:40:17;10.35;;;9.35;;
73168;SDS011;61379;59.732;30.468;2024-03-08T12:42:44;10.05;;;9.25;;
73168;SDS011;61379;59.732;30.468;2024-03-08T12:45:13;9.70;;;8.65;;
73168;SDS011;61379;59.732;30.468;2024-03-08T12:47:40;13.27;;;9.65;;
73168;SDS011;61379;59.732;30.468;2024-03-08T12:50:08;15.25;;;9.13;;
73168;SDS011;61379;59.732;30.468;2024-03-08T12:52:35;12.43;;;9.35;;
73168;SDS011;61379;59.732;30.468;2024-03-08T12:55:04;11.82;;;9.20;;
73168;SDS011;61379;59.732;30.468;2024-03-08T12:57:32;11.50;;;9.10;;
73168;SDS011;61379;59.732;30.468;2024-03-08T13:00:00;11.43;;;9.20;;
73168;SDS011;61379;59.732;30.468;2024-03-08T13:02:29;10.57;;;9.02;;
73168;SDS011;61379;59.732;30.468;2024-03-08T13:04:57;11.35;;;9.88;;
73168;SDS011;61379;59.732;30.468;2024-03-08T13:07:24;10.27;;;9.27;;
73168;SDS011;61379;59.732;30.468;2024-03-08T13:09:52;9.77;;;8.90;;
73168;SDS011;61379;59.732;30.468;2024-03-08T13:12:21;9.80;;;8.93;;
73168;SDS011;61379;59.732;30.468;2024-03-08T13:14:49;11.48;;;8.63;;
73168;SDS011;61379;59.732;30.468;2024-03-08T13:17:16;9.45;;;8.52;;
73168;SDS011;61379;59.732;30.468;2024-03-08T13:19:43;9.52;;;8.65;;
73168;SDS011;61379;59.732;30.468;2024-03-08T13:22:10;8.50;;;7.90;;
73168;SDS011;61379;59.732;30.468;2024-03-08T13:24:38;7.95;;;7.28;;
73168;SDS011;61379;59.732;30.468;2024-03-08T13:27:10;7.53;;;6.93;;
73168;SDS011;61379;59.732;30.468;2024-03-08T13:29:49;6.68;;;6.18;;
73168;SDS011;61379;59.732;30.468;2024-03-08T13:32:16;7.72;;;7.13;;
73168;SDS011;61379;59.732;30.468;2024-03-08T13:34:48;8.07;;;7.47;;
73168;SDS011;61379;59.732;30.468;2024-03-08T13:37:17;7.65;;;6.07;;
73168;SDS011;61379;59.732;30.468;2024-03-08T13:39:45;7.90;;;7.07;;
73168;SDS011;61379;59.732;30.468;2024-03-08T13:42:12;5.82;;;4.97;;
73168;SDS011;61379;59.732;30.468;2024-03-08T13:44:44;7.93;;;7.15;;
73168;SDS011;61379;59.732;30.468;2024-03-08T13:47:14;7.97;;;6.32;;
73168;SDS011;61379;59.732;30.468;2024-03-08T13:49:41;10.57;;;6.93;;
73168;SDS011;61379;59.732;30.468;2024-03-08T13:52:09;9.68;;;7.72;;
73168;SDS011;61379;59.732;30.468;2024-03-08T13:54:37;7.22;;;6.68;;
73168;SDS011;61379;59.732;30.468;2024-03-08T13:57:05;9.18;;;5.45;;
73168;SDS011;61379;59.732;30.468;2024-03-08T13:59:32;6.38;;;5.88;;
73168;SDS011;61379;59.732;30.468;2024-03-08T14:02:00;7.95;;;6.85;;
73168;SDS011;61379;59.732;30.468;2024-03-08T14:04:31;6.75;;;6.20;;
73168;SDS011;61379;59.732;30.468;2024-03-08T14:06:58;9.18;;;7.72;;
73168;SDS011;61379;59.732;30.468;2024-03-08T14:09:29;5.75;;;5.32;;
73168;SDS011;61379;59.732;30.468;2024-03-08T14:11:57;6.10;;;5.57;;
73168;SDS011;61379;59.732;30.468;2024-03-08T14:14:24;7.45;;;6.95;;
73168;SDS011;61379;59.732;30.468;2024-03-08T14:16:51;11.55;;;7.45;;
73168;SDS011;61379;59.732;30.468;2024-03-08T14:19:20;8.60;;;6.55;;
73168;SDS011;61379;59.732;30.468;2024-03-08T14:21:49;9.63;;;7.25;;
73168;SDS011;61379;59.732;30.468;2024-03-08T14:24:18;7.45;;;6.75;;
73168;SDS011;61379;59.732;30.468;2024-03-08T14:26:45;6.22;;;5.63;;
73168;SDS011;61379;59.732;30.468;2024-03-08T14:29:14;7.35;;;6.65;;
73168;SDS011;61379;59.732;30.468;2024-03-08T14:31:41;7.30;;;6.68;;